createdAt,value
2022-08-22T00:01:46.956Z,81.50
2022-08-22T00:02:52.898Z,66.30
2022-08-22T00:03:00.779Z,63.10
2022-08-22T00:03:15.495Z,78.20
2022-08-22T00:04:25.417Z,81.60
2022-08-22T00:07:02.338Z,81.60
2022-08-22T00:09:36.257Z,81.60
2022-08-22T00:12:14.208Z,81.30
2022-08-22T00:14:47.437Z,81.30
2022-08-22T00:17:35.186Z,81.10
2022-08-22T00:20:13.129Z,81.00
2022-08-22T00:22:49.797Z,80.80
2022-08-22T00:25:35.007Z,80.60
2022-08-22T00:28:08.164Z,80.50
2022-08-22T00:30:45.489Z,80.10
2022-08-22T00:33:22.906Z,80.10
2022-08-22T00:36:08.444Z,80.30
2022-08-22T00:38:42.164Z,80.70
2022-08-22T00:41:24.425Z,81.00
2022-08-22T00:44:23.929Z,81.20
2022-08-22T00:47:17.106Z,81.60
2022-08-22T00:50:03.814Z,82.20
2022-08-22T00:52:49.534Z,82.90
2022-08-22T00:55:34.826Z,83.00
2022-08-22T00:58:25.669Z,83.00
2022-08-22T01:00:59.238Z,82.60
2022-08-22T01:04:06.977Z,82.40
2022-08-22T01:06:48.861Z,82.80
2022-08-22T01:09:31.683Z,83.50
2022-08-22T01:12:15.391Z,83.80
2022-08-22T01:14:48.326Z,83.60
2022-08-22T01:17:40.114Z,83.70
2022-08-22T01:20:37.050Z,84.00
2022-08-22T01:23:42.707Z,83.90
2022-08-22T01:27:10.651Z,84.20
2022-08-22T01:30:33.449Z,84.40
2022-08-22T01:33:45.470Z,84.20
2022-08-22T01:36:32.524Z,84.00
2022-08-22T01:39:17.181Z,84.40
2022-08-22T01:42:21.029Z,84.30
2022-08-22T01:45:36.959Z,84.40
2022-08-22T01:48:11.514Z,84.20
2022-08-22T01:50:44.875Z,84.30
2022-08-22T01:53:20.428Z,84.40
2022-08-22T01:55:57.941Z,84.70
2022-08-22T01:58:30.022Z,84.90
2022-08-22T02:01:21.803Z,85.20
2022-08-22T02:04:03.262Z,85.60
2022-08-22T02:06:43.729Z,86.20
2022-08-22T02:09:27.404Z,86.40
2022-08-22T02:12:00.208Z,86.70
2022-08-22T02:14:41.368Z,86.70
2022-08-22T02:17:20.054Z,86.90
2022-08-22T02:19:56.227Z,87.10
2022-08-22T02:22:33.923Z,86.90
2022-08-22T02:25:09.780Z,86.70
2022-08-22T02:27:50.120Z,86.70
2022-08-22T02:30:21.808Z,86.70
2022-08-22T02:33:05.496Z,86.80
2022-08-22T02:35:38.687Z,86.90
2022-08-22T02:38:24.084Z,87.00
2022-08-22T02:41:05.455Z,87.00
2022-08-22T02:43:40.896Z,86.70
2022-08-22T02:46:19.871Z,86.70
2022-08-22T02:48:58.277Z,86.90
2022-08-22T02:51:37.183Z,87.20
2022-08-22T02:54:14.154Z,87.40
2022-08-22T02:56:50.702Z,87.40
2022-08-22T02:59:31.938Z,87.40
2022-08-22T03:02:27.700Z,87.50
2022-08-22T03:04:58.077Z,87.90
2022-08-22T03:07:39.020Z,87.90
2022-08-22T03:10:16.557Z,88.20
2022-08-22T03:12:58.289Z,89.10
2022-08-22T03:15:34.081Z,90.00
2022-08-22T03:18:07.951Z,90.10
2022-08-22T03:20:46.723Z,90.40
2022-08-22T03:23:24.000Z,91.40
2022-08-22T03:25:59.924Z,92.00
2022-08-22T03:28:36.793Z,91.90
2022-08-22T03:31:13.681Z,91.10
2022-08-22T03:33:42.162Z,91.30
2022-08-22T03:36:25.762Z,90.10
2022-08-22T03:39:17.291Z,89.20
2022-08-22T03:42:03.387Z,89.20
2022-08-22T03:45:11.595Z,89.40
2022-08-22T03:48:08.629Z,89.50
2022-08-22T03:50:56.600Z,89.50
2022-08-22T03:53:58.250Z,89.60
2022-08-22T03:57:02.526Z,90.10
2022-08-22T04:00:07.854Z,90.60
2022-08-22T04:03:08.272Z,91.30
2022-08-22T04:06:11.526Z,91.60
2022-08-22T04:09:07.686Z,91.40
2022-08-22T04:12:13.571Z,92.20
2022-08-22T04:15:00.800Z,93.20
2022-08-22T04:18:17.635Z,93.10
2022-08-22T04:21:16.577Z,92.60
2022-08-22T04:24:08.899Z,92.40
2022-08-22T04:26:45.352Z,91.50
2022-08-22T04:29:20.591Z,91.20
2022-08-22T04:31:55.448Z,91.50
2022-08-22T04:34:29.588Z,91.90
2022-08-22T04:37:03.387Z,92.10
2022-08-22T04:39:36.748Z,92.70
2022-08-22T04:42:31.225Z,93.20
2022-08-22T04:45:06.846Z,93.20
2022-08-22T04:47:40.336Z,93.30
2022-08-22T04:50:16.735Z,92.90
2022-08-22T04:53:03.968Z,92.50
2022-08-22T04:55:37.442Z,92.10
2022-08-22T04:58:19.642Z,91.30
2022-08-22T05:01:04.595Z,90.70
2022-08-22T05:03:43.075Z,90.40
2022-08-22T05:06:15.659Z,90.10
2022-08-22T05:08:45.779Z,89.90
2022-08-22T05:11:19.843Z,89.70
2022-08-22T05:13:52.201Z,89.50
2022-08-22T05:16:24.395Z,89.60
2022-08-22T05:18:57.368Z,89.60
2022-08-22T05:21:33.512Z,90.40
2022-08-22T05:24:05.580Z,90.80
2022-08-22T05:26:39.520Z,91.10
2022-08-22T05:29:10.216Z,91.30
2022-08-22T05:31:42.703Z,90.20
2022-08-22T05:34:17.725Z,89.20
2022-08-22T05:36:49.691Z,88.70
2022-08-22T05:39:22.729Z,88.20
2022-08-22T05:41:55.875Z,87.90
2022-08-22T05:44:26.937Z,87.50
2022-08-22T05:47:01.890Z,87.30
2022-08-22T05:49:38.193Z,87.40
2022-08-22T05:52:16.394Z,87.30
2022-08-22T05:54:53.567Z,86.80
2022-08-22T05:57:28.894Z,86.50
2022-08-22T06:00:03.953Z,86.30
2022-08-22T06:02:52.092Z,86.10
2022-08-22T06:05:25.757Z,85.80
2022-08-22T06:08:00.824Z,85.70
2022-08-22T06:10:35.210Z,85.20
2022-08-22T06:13:06.719Z,85.00
2022-08-22T06:15:47.803Z,84.70
2022-08-22T06:18:22.000Z,84.60
2022-08-22T06:20:55.043Z,84.20
2022-08-22T06:23:27.452Z,83.90
2022-08-22T06:25:59.193Z,84.00
2022-08-22T06:28:32.820Z,84.10
2022-08-22T06:31:03.483Z,84.00
2022-08-22T06:33:39.047Z,83.20
2022-08-22T06:36:32.443Z,82.90
2022-08-22T06:39:23.382Z,82.80
2022-08-22T06:41:54.701Z,82.90
2022-08-22T06:44:25.959Z,82.40
2022-08-22T06:46:58.474Z,82.10
2022-08-22T06:49:29.026Z,81.70
2022-08-22T06:52:03.046Z,80.80
2022-08-22T06:54:36.278Z,76.90
2022-08-22T06:57:06.640Z,72.70
2022-08-22T06:59:38.767Z,68.80
2022-08-22T07:02:17.458Z,67.00
2022-08-22T07:04:49.907Z,65.20
2022-08-22T07:07:24.856Z,64.10
2022-08-22T07:09:55.550Z,64.30
2022-08-22T07:12:28.776Z,64.80
2022-08-22T07:15:01.184Z,62.30
2022-08-22T07:17:31.154Z,61.90
2022-08-22T07:20:05.305Z,60.70
2022-08-22T07:22:37.438Z,60.10
2022-08-22T07:25:11.299Z,58.70
2022-08-22T07:27:52.420Z,57.80
2022-08-22T07:30:26.597Z,57.90
2022-08-22T07:33:25.985Z,58.20
2022-08-22T07:35:55.749Z,57.00
2022-08-22T07:38:33.239Z,57.40
2022-08-22T07:41:10.696Z,57.10
2022-08-22T07:43:43.710Z,57.10
2022-08-22T07:46:22.846Z,57.90
2022-08-22T07:49:08.531Z,57.20
2022-08-22T07:51:42.693Z,57.60
2022-08-22T07:54:14.884Z,56.60
2022-08-22T07:56:50.320Z,56.10
2022-08-22T07:59:21.401Z,54.90
2022-08-22T08:01:54.037Z,54.90
2022-08-22T08:04:26.218Z,53.60
2022-08-22T08:06:57.619Z,53.10
2022-08-22T08:09:31.062Z,54.10
2022-08-22T08:12:00.786Z,54.40
2022-08-22T08:14:29.585Z,54.20
2022-08-22T08:17:03.298Z,53.30
2022-08-22T08:19:35.226Z,53.30
2022-08-22T08:22:04.778Z,53.80
2022-08-22T08:24:40.777Z,53.90
2022-08-22T08:27:33.639Z,53.80
2022-08-22T08:30:06.505Z,53.70
2022-08-22T08:32:38.373Z,53.60
2022-08-22T08:35:11.781Z,53.00
2022-08-22T08:37:45.334Z,53.80
2022-08-22T08:40:27.757Z,55.20
2022-08-22T08:43:29.893Z,55.10
2022-08-22T08:46:40.792Z,54.10
2022-08-22T08:49:29.926Z,54.20
2022-08-22T08:52:42.082Z,54.50
2022-08-22T08:55:29.553Z,54.10
2022-08-22T08:58:12.373Z,54.10
2022-08-22T09:00:52.270Z,54.60
2022-08-22T09:03:57.333Z,54.40
2022-08-22T09:06:56.823Z,53.80
2022-08-22T09:09:45.595Z,53.70
2022-08-22T09:12:54.368Z,53.60
2022-08-22T09:15:41.553Z,53.80
2022-08-22T09:18:49.585Z,53.20
2022-08-22T09:21:45.506Z,54.10
2022-08-22T09:24:53.361Z,52.90
2022-08-22T09:27:33.631Z,52.50
2022-08-22T09:30:08.673Z,52.40
2022-08-22T09:32:54.590Z,53.10
2022-08-22T09:35:32.127Z,52.70
2022-08-22T09:38:25.393Z,52.20
2022-08-22T09:41:01.087Z,52.80
2022-08-22T09:43:44.174Z,53.00
2022-08-22T09:46:21.317Z,53.70
2022-08-22T09:49:05.647Z,53.60
2022-08-22T09:51:44.549Z,53.20
2022-08-22T09:54:31.359Z,53.00
2022-08-22T09:57:17.429Z,52.20
2022-08-22T10:00:15.402Z,52.00
2022-08-22T10:02:52.232Z,51.30
2022-08-22T10:05:40.636Z,51.40
2022-08-22T10:08:40.634Z,51.70
2022-08-22T10:11:26.781Z,51.20
2022-08-22T10:14:02.279Z,50.10
2022-08-22T10:17:03.490Z,49.30
2022-08-22T10:19:38.110Z,49.10
2022-08-22T10:22:20.251Z,48.80
2022-08-22T10:24:59.885Z,49.30
2022-08-22T10:27:42.635Z,49.80
2022-08-22T10:30:16.350Z,49.30
2022-08-22T10:32:51.995Z,49.10
2022-08-22T10:35:25.736Z,47.80
2022-08-22T10:38:00.176Z,47.80
2022-08-22T10:40:36.043Z,47.00
2022-08-22T10:43:12.844Z,47.70
2022-08-22T10:45:45.182Z,47.60
2022-08-22T10:48:43.653Z,47.60
2022-08-22T10:51:24.884Z,49.30
2022-08-22T10:54:32.560Z,49.00
2022-08-22T10:57:15.204Z,49.40
2022-08-22T10:59:57.177Z,48.20
2022-08-22T11:02:55.166Z,47.20
2022-08-22T11:05:39.264Z,49.80
2022-08-22T11:08:31.487Z,49.70
2022-08-22T11:11:09.471Z,50.90
2022-08-22T11:13:44.169Z,52.70
2022-08-22T11:16:20.113Z,54.40
2022-08-22T11:19:15.253Z,56.10
2022-08-22T11:22:07.780Z,57.20
2022-08-22T11:25:14.049Z,56.60
2022-08-22T11:27:55.111Z,55.80
2022-08-22T11:30:36.268Z,56.50
2022-08-22T11:33:32.454Z,57.60
2022-08-22T11:36:26.308Z,59.30
2022-08-22T11:39:18.056Z,60.00
2022-08-22T11:41:56.100Z,58.30
2022-08-22T11:44:35.775Z,57.30
2022-08-22T11:47:28.856Z,56.00
2022-08-22T11:50:03.312Z,54.80
2022-08-22T11:53:04.507Z,54.20
2022-08-22T11:55:39.332Z,52.80
2022-08-22T11:58:22.944Z,53.30
2022-08-22T12:01:01.428Z,53.20
2022-08-22T12:03:55.672Z,54.20
2022-08-22T12:06:44.423Z,52.60
2022-08-22T12:09:36.346Z,50.40
2022-08-22T12:12:42.534Z,49.80
2022-08-22T12:15:17.456Z,49.30
2022-08-22T12:18:25.093Z,48.30
2022-08-22T12:21:15.816Z,47.80
2022-08-22T12:24:11.088Z,49.40
2022-08-22T12:26:59.315Z,48.80
2022-08-22T12:29:39.939Z,49.90
2022-08-22T12:32:43.894Z,52.40
2022-08-22T12:35:29.982Z,54.20
2022-08-22T12:38:26.722Z,54.30
2022-08-22T12:41:12.212Z,52.60
2022-08-22T12:43:53.188Z,50.50
2022-08-22T12:46:37.844Z,49.30
2022-08-22T12:49:49.804Z,48.90
2022-08-22T12:52:31.233Z,49.30
2022-08-22T12:55:24.858Z,49.00
2022-08-22T12:58:03.275Z,49.40
2022-08-22T13:00:35.031Z,49.10
2022-08-22T13:03:10.741Z,48.20
2022-08-22T13:05:44.783Z,48.00
2022-08-22T13:08:30.061Z,48.00
2022-08-22T13:11:02.253Z,48.70
2022-08-22T13:13:36.942Z,48.60
2022-08-22T13:16:08.241Z,48.10
2022-08-22T13:18:44.593Z,47.30
2022-08-22T13:21:16.510Z,46.80
2022-08-22T13:23:48.565Z,46.60
2022-08-22T13:26:33.700Z,46.40
2022-08-22T13:29:25.224Z,46.70
2022-08-22T13:32:01.998Z,45.90
2022-08-22T13:34:40.557Z,46.00
2022-08-22T13:37:16.652Z,45.70
2022-08-22T13:39:49.101Z,46.90
2022-08-22T13:42:28.960Z,46.80
2022-08-22T13:45:05.077Z,48.00
2022-08-22T13:47:39.231Z,47.90
2022-08-22T13:50:14.660Z,48.70
2022-08-22T13:52:52.303Z,50.10
2022-08-22T13:55:29.529Z,50.90
2022-08-22T13:58:06.821Z,51.20
2022-08-22T14:01:08.296Z,52.00
2022-08-22T14:03:42.986Z,50.70
2022-08-22T14:06:35.483Z,50.00
2022-08-22T14:09:31.786Z,48.30
2022-08-22T14:12:12.289Z,49.00
2022-08-22T14:14:45.818Z,49.60
2022-08-22T14:17:20.787Z,50.80
2022-08-22T14:19:59.702Z,52.10
2022-08-22T14:22:35.483Z,53.00
2022-08-22T14:25:08.593Z,53.50
2022-08-22T14:27:39.920Z,54.10
2022-08-22T14:30:15.997Z,54.50
2022-08-22T14:32:50.451Z,54.70
2022-08-22T14:35:34.592Z,55.10
2022-08-22T14:38:27.341Z,55.40
2022-08-22T14:41:03.251Z,56.00
2022-08-22T14:43:49.293Z,56.10
2022-08-22T14:46:26.684Z,56.00
2022-08-22T14:49:30.332Z,56.50
2022-08-22T14:52:07.373Z,56.60
2022-08-22T14:54:39.269Z,57.00
2022-08-22T14:57:20.515Z,56.90
2022-08-22T14:59:52.632Z,56.30
2022-08-22T15:02:26.798Z,55.10
2022-08-22T15:04:57.725Z,53.00
2022-08-22T15:07:28.446Z,52.00
2022-08-22T15:10:03.182Z,51.40
2022-08-22T15:12:34.576Z,50.70
2022-08-22T15:15:06.261Z,50.40
2022-08-22T15:17:44.060Z,50.70
2022-08-22T15:20:27.879Z,50.20
2022-08-22T15:23:01.426Z,49.80
2022-08-22T15:25:34.388Z,49.80
2022-08-22T15:28:06.738Z,50.30
2022-08-22T15:30:45.121Z,49.80
2022-08-22T15:33:24.354Z,49.50
2022-08-22T15:35:55.359Z,49.20
2022-08-22T15:38:32.425Z,50.60
2022-08-22T15:41:31.450Z,50.90
2022-08-22T15:44:09.287Z,51.10
2022-08-22T15:47:24.206Z,50.70
2022-08-22T15:49:59.311Z,50.40
2022-08-22T15:52:30.630Z,50.70
2022-08-22T15:55:21.636Z,50.70
2022-08-22T15:58:02.525Z,51.30
2022-08-22T16:00:43.756Z,52.60
2022-08-22T16:03:24.465Z,53.60
2022-08-22T16:05:56.033Z,54.30
2022-08-22T16:08:32.781Z,55.00
2022-08-22T16:11:29.676Z,55.30
2022-08-22T16:14:24.788Z,55.60
2022-08-22T16:17:01.632Z,55.50
2022-08-22T16:19:32.908Z,55.80
2022-08-22T16:22:18.992Z,55.80
2022-08-22T16:25:10.549Z,56.00
2022-08-22T16:27:52.897Z,56.40
2022-08-22T16:30:34.907Z,56.80
2022-08-22T16:33:04.494Z,56.80
2022-08-22T16:36:24.913Z,57.10
2022-08-22T16:38:57.099Z,57.30
2022-08-22T16:41:34.787Z,57.50
2022-08-22T16:44:31.357Z,56.80
2022-08-22T16:47:12.822Z,56.10
2022-08-22T16:49:57.045Z,56.20
2022-08-22T16:53:01.635Z,56.00
2022-08-22T16:55:56.316Z,55.70
2022-08-22T16:59:19.658Z,55.90
2022-08-22T17:02:09.703Z,56.70
2022-08-22T17:04:50.864Z,57.40
2022-08-22T17:07:30.988Z,57.80
2022-08-22T17:10:36.166Z,57.80
2022-08-22T17:13:22.841Z,58.30
2022-08-22T17:16:21.502Z,58.70
2022-08-22T17:19:09.190Z,58.90
2022-08-22T17:21:51.719Z,58.90
2022-08-22T17:24:34.014Z,59.00
2022-08-22T17:27:08.758Z,59.40
2022-08-22T17:29:53.761Z,59.50
2022-08-22T17:32:30.139Z,59.80
2022-08-22T17:35:07.597Z,60.00
2022-08-22T17:37:47.356Z,60.10
2022-08-22T17:40:28.684Z,60.30
2022-08-22T17:43:16.375Z,60.50
2022-08-22T17:46:00.409Z,60.80
2022-08-22T17:48:33.907Z,61.10
2022-08-22T17:51:11.764Z,61.30
2022-08-22T17:53:49.127Z,61.70
2022-08-22T17:56:23.659Z,62.10
2022-08-22T17:59:00.623Z,62.40
2022-08-22T18:01:45.250Z,62.70
2022-08-22T18:04:28.266Z,62.90
2022-08-22T18:07:05.244Z,63.20
2022-08-22T18:09:41.247Z,63.50
2022-08-22T18:12:17.434Z,63.90
2022-08-22T18:14:51.538Z,64.40
2022-08-22T18:17:26.202Z,64.10
2022-08-22T18:20:03.476Z,63.90
2022-08-22T18:22:37.440Z,64.20
2022-08-22T18:25:15.151Z,64.80
2022-08-22T18:27:51.988Z,64.70
2022-08-22T18:30:22.683Z,65.10
2022-08-22T18:32:57.625Z,65.10
2022-08-22T18:35:34.637Z,65.30
2022-08-22T18:38:19.135Z,65.50
2022-08-22T18:40:55.119Z,65.80
2022-08-22T18:43:36.022Z,65.90
2022-08-22T18:46:28.646Z,66.30
2022-08-22T18:49:15.227Z,66.80
2022-08-22T18:51:44.497Z,67.30
2022-08-22T18:54:37.073Z,67.90
2022-08-22T18:57:30.753Z,68.60
2022-08-22T19:00:07.612Z,68.70
2022-08-22T19:02:55.991Z,68.90
2022-08-22T19:05:40.277Z,69.00
2022-08-22T19:08:33.394Z,69.30
2022-08-22T19:11:16.951Z,69.80
2022-08-22T19:14:03.680Z,69.60
2022-08-22T19:17:03.261Z,70.10
2022-08-22T19:20:03.110Z,70.60
2022-08-22T19:22:35.716Z,70.60
2022-08-22T19:25:16.898Z,71.20
2022-08-22T19:27:46.778Z,70.70
2022-08-22T19:30:39.427Z,71.40
2022-08-22T19:33:09.854Z,71.80
2022-08-22T19:35:47.278Z,72.10
2022-08-22T19:38:52.432Z,72.00
2022-08-22T19:41:40.217Z,72.30
2022-08-22T19:44:12.499Z,72.20
2022-08-22T19:46:43.084Z,72.60
2022-08-22T19:49:29.012Z,73.00
2022-08-22T19:52:14.590Z,72.70
2022-08-22T19:54:54.376Z,72.40
2022-08-22T19:57:30.297Z,72.90
2022-08-22T20:00:04.053Z,73.40
2022-08-22T20:02:40.201Z,73.60
2022-08-22T20:05:24.564Z,74.00
2022-08-22T20:08:14.588Z,74.60
2022-08-22T20:10:56.931Z,74.90
2022-08-22T20:13:27.915Z,75.00
2022-08-22T20:16:06.465Z,74.70
2022-08-22T20:19:13.832Z,74.60
2022-08-22T20:21:47.425Z,74.70
2022-08-22T20:24:31.347Z,75.30
2022-08-22T20:27:13.750Z,75.70
2022-08-22T20:29:49.283Z,75.70
2022-08-22T20:32:21.310Z,76.00
2022-08-22T20:34:55.479Z,76.10
2022-08-22T20:37:45.415Z,76.20
2022-08-22T20:40:53.272Z,76.30
2022-08-22T20:43:28.467Z,76.70
2022-08-22T20:46:08.020Z,76.80
2022-08-22T20:48:42.471Z,76.90
2022-08-22T20:51:16.059Z,77.00
2022-08-22T20:53:52.508Z,77.00
2022-08-22T20:56:36.875Z,76.70
2022-08-22T20:59:24.009Z,77.00
2022-08-22T21:01:57.991Z,77.20
2022-08-22T21:04:32.146Z,77.30
2022-08-22T21:07:03.164Z,77.60
2022-08-22T21:09:48.851Z,77.90
2022-08-22T21:12:16.856Z,78.50
2022-08-22T21:14:46.921Z,79.00
2022-08-22T21:17:20.150Z,78.90
2022-08-22T21:19:48.575Z,78.70
2022-08-22T21:22:20.721Z,78.40
2022-08-22T21:24:48.684Z,78.30
2022-08-22T21:27:24.454Z,78.30
2022-08-22T21:29:52.585Z,77.90
2022-08-22T21:32:28.750Z,77.10
2022-08-22T21:34:57.009Z,77.90
2022-08-22T21:37:34.365Z,78.10
2022-08-22T21:40:08.397Z,78.60
2022-08-22T21:42:45.778Z,79.10
2022-08-22T21:45:28.315Z,79.10
2022-08-22T21:47:56.539Z,79.10
2022-08-22T21:50:34.678Z,79.30
2022-08-22T21:53:10.143Z,80.00
2022-08-22T21:55:42.781Z,80.10
2022-08-22T21:58:36.870Z,80.40
2022-08-22T22:01:29.193Z,79.30
2022-08-22T22:03:58.336Z,79.60
2022-08-22T22:06:26.981Z,79.80
2022-08-22T22:08:56.762Z,80.30
2022-08-22T22:11:24.760Z,80.50
2022-08-22T22:13:52.981Z,80.20
2022-08-22T22:16:28.386Z,80.40
2022-08-22T22:18:57.084Z,80.20
2022-08-22T22:21:25.124Z,79.60
2022-08-22T22:23:53.656Z,80.20
2022-08-22T22:26:28.698Z,80.50
2022-08-22T22:28:58.656Z,79.90
2022-08-22T22:31:26.783Z,79.40
2022-08-22T22:33:54.884Z,79.20
2022-08-22T22:36:26.141Z,79.10
2022-08-22T22:38:55.098Z,79.00
2022-08-22T22:41:25.767Z,79.10
2022-08-22T22:43:56.347Z,80.10
2022-08-22T22:46:26.765Z,80.60
2022-08-22T22:48:54.923Z,80.10
2022-08-22T22:51:23.225Z,80.50
2022-08-22T22:53:51.787Z,80.80
2022-08-22T22:56:22.227Z,80.60
2022-08-22T22:58:59.095Z,80.90
2022-08-22T23:01:33.258Z,80.20
2022-08-22T23:04:05.509Z,80.00
2022-08-22T23:06:34.569Z,80.30
2022-08-22T23:09:02.684Z,80.40
2022-08-22T23:11:31.822Z,80.70
2022-08-22T23:13:59.797Z,80.80
2022-08-22T23:16:32.943Z,81.20
2022-08-22T23:19:10.228Z,81.70
2022-08-22T23:21:38.289Z,81.80
2022-08-22T23:24:06.949Z,82.00
2022-08-22T23:26:36.049Z,81.40
2022-08-22T23:29:05.408Z,81.60
2022-08-22T23:31:35.303Z,81.60
2022-08-22T23:34:05.861Z,81.50
2022-08-22T23:36:35.711Z,81.50
2022-08-22T23:39:04.634Z,81.60
2022-08-22T23:41:32.835Z,81.80
2022-08-22T23:44:00.786Z,81.80
2022-08-22T23:46:29.014Z,82.10
2022-08-22T23:48:59.300Z,82.40
2022-08-22T23:51:28.333Z,83.00
2022-08-22T23:53:59.238Z,83.40
2022-08-22T23:56:29.406Z,83.90
2022-08-22T23:58:58.426Z,84.10
